createdAt,value
2019-05-23T00:02:02.717Z,55.59
2019-05-23T00:04:29.339Z,55.60
2019-05-23T00:06:56.013Z,55.75
2019-05-23T00:09:22.631Z,55.58
2019-05-23T00:11:49.259Z,55.55
2019-05-23T00:14:15.848Z,55.08
2019-05-23T00:16:42.548Z,55.36
2019-05-23T00:19:09.256Z,55.60
2019-05-23T00:24:11.373Z,56.03
2019-05-23T00:26:38.152Z,55.98
2019-05-23T00:29:10.040Z,55.67
2019-05-23T00:31:33.235Z,55.62
2019-05-23T00:33:59.889Z,55.76
2019-05-23T00:36:26.551Z,55.66
2019-05-23T00:38:53.205Z,55.45
2019-05-23T00:41:19.799Z,55.85
2019-05-23T00:43:46.584Z,56.58
2019-05-23T00:46:13.198Z,56.21
2019-05-23T00:48:39.783Z,56.09
2019-05-23T00:51:06.562Z,56.36
2019-05-23T00:53:33.235Z,56.08
2019-05-23T00:55:59.866Z,55.89
2019-05-23T00:58:26.565Z,55.94
2019-05-23T01:00:54.997Z,56.38
2019-05-23T01:03:21.595Z,56.33
2019-05-23T01:05:48.236Z,56.38
2019-05-23T01:08:14.821Z,56.66
2019-05-23T01:10:41.424Z,56.55
2019-05-23T01:13:08.144Z,56.37
2019-05-23T01:15:34.969Z,56.81
2019-05-23T01:18:01.573Z,57.05
2019-05-23T01:20:29.490Z,56.80
2019-05-23T01:22:56.109Z,56.76
2019-05-23T01:25:22.936Z,57.07
2019-05-23T01:27:51.919Z,56.99
2019-05-23T01:30:18.553Z,56.98
2019-05-23T01:32:48.981Z,57.02
2019-05-23T01:35:15.619Z,56.63
2019-05-23T01:37:42.225Z,56.88
2019-05-23T01:40:11.556Z,57.15
2019-05-23T01:42:40.330Z,57.32
2019-05-23T01:45:09.141Z,57.09
2019-05-23T01:47:37.893Z,57.23
2019-05-23T01:50:04.647Z,57.70
2019-05-23T01:52:31.253Z,57.48
2019-05-23T01:54:57.872Z,56.75
2019-05-23T01:57:25.485Z,57.26
2019-05-23T02:00:08.363Z,57.35
2019-05-23T02:02:20.451Z,57.10
2019-05-23T02:04:47.130Z,57.32
2019-05-23T02:07:13.724Z,57.92
2019-05-23T02:09:40.340Z,58.00
2019-05-23T02:12:09.457Z,58.17
2019-05-23T02:14:36.040Z,58.48
2019-05-23T02:17:02.909Z,58.55
2019-05-23T02:19:29.487Z,57.98
2019-05-23T02:21:57.284Z,58.15
2019-05-23T02:24:23.879Z,58.19
2019-05-23T02:26:50.533Z,58.04
2019-05-23T02:29:20.788Z,57.64
2019-05-23T02:31:47.408Z,58.28
2019-05-23T02:34:15.472Z,58.67
2019-05-23T02:36:42.145Z,58.07
2019-05-23T02:39:12.469Z,57.83
2019-05-23T02:41:39.125Z,58.15
2019-05-23T02:44:08.245Z,58.14
2019-05-23T02:46:38.338Z,58.09
2019-05-23T02:49:07.072Z,58.21
2019-05-23T02:51:33.887Z,58.30
2019-05-23T02:54:01.055Z,58.47
2019-05-23T02:56:27.682Z,57.85
2019-05-23T02:58:54.366Z,58.77
2019-05-23T03:01:21.014Z,58.86
2019-05-23T03:03:47.748Z,58.67
2019-05-23T03:06:14.486Z,58.73
2019-05-23T03:08:41.071Z,58.59
2019-05-23T03:11:07.746Z,58.73
2019-05-23T03:13:34.335Z,58.78
2019-05-23T03:16:00.918Z,58.84
2019-05-23T03:18:27.550Z,59.27
2019-05-23T03:20:54.138Z,58.80
2019-05-23T03:23:20.731Z,59.59
2019-05-23T03:25:47.393Z,60.33
2019-05-23T03:28:14.050Z,59.90
2019-05-23T03:30:40.659Z,60.07
2019-05-23T03:33:07.288Z,59.61
2019-05-23T03:35:33.872Z,60.47
2019-05-23T03:38:03.323Z,60.29
2019-05-23T03:40:30.011Z,60.25
2019-05-23T03:42:58.729Z,59.55
2019-05-23T03:45:25.302Z,59.50
2019-05-23T03:47:51.929Z,60.01
2019-05-23T03:50:19.524Z,59.68
2019-05-23T03:52:46.162Z,59.13
2019-05-23T03:55:12.782Z,59.21
2019-05-23T03:57:39.487Z,60.56
2019-05-23T04:00:08.193Z,61.04
2019-05-23T04:02:34.894Z,62.18
2019-05-23T04:05:01.524Z,62.43
2019-05-23T04:07:28.217Z,62.83
2019-05-23T04:09:55.477Z,62.59
2019-05-23T04:12:22.265Z,62.54
2019-05-23T04:14:48.876Z,62.00
2019-05-23T04:17:15.529Z,62.58
2019-05-23T04:19:42.182Z,63.11
2019-05-23T04:22:08.756Z,63.77
2019-05-23T04:24:35.438Z,63.75
2019-05-23T04:27:02.023Z,63.40
2019-05-23T04:29:29.415Z,63.36
2019-05-23T04:32:07.020Z,63.14
2019-05-23T04:34:24.435Z,62.67
2019-05-23T04:36:51.036Z,63.17
2019-05-23T04:39:21.589Z,63.49
2019-05-23T04:41:50.235Z,63.42
2019-05-23T04:44:16.566Z,62.73
2019-05-23T04:46:43.222Z,63.32
2019-05-23T04:49:09.808Z,63.31
2019-05-23T04:51:36.424Z,63.50
2019-05-23T04:54:03.103Z,63.34
2019-05-23T04:56:29.686Z,64.03
2019-05-23T04:58:56.311Z,64.18
2019-05-23T05:01:22.976Z,64.36
2019-05-23T05:03:49.571Z,64.32
2019-05-23T05:06:16.251Z,63.88
2019-05-23T05:08:45.010Z,63.87
2019-05-23T05:11:11.624Z,63.76
2019-05-23T05:13:38.242Z,64.02
2019-05-23T05:16:04.873Z,63.81
2019-05-23T05:18:31.473Z,62.94
2019-05-23T05:20:58.213Z,63.17
2019-05-23T05:23:24.834Z,63.35
2019-05-23T05:25:51.416Z,63.37
2019-05-23T05:28:18.741Z,63.05
2019-05-23T05:30:45.370Z,63.33
2019-05-23T05:33:12.023Z,63.29
2019-05-23T05:35:38.592Z,63.00
2019-05-23T05:38:05.323Z,62.66
2019-05-23T05:40:31.931Z,62.98
2019-05-23T05:42:58.603Z,62.13
2019-05-23T05:45:25.258Z,62.12
2019-05-23T05:47:51.876Z,61.89
2019-05-23T05:50:18.490Z,62.18
2019-05-23T05:52:45.107Z,62.22
2019-05-23T05:57:47.451Z,62.62
2019-05-23T06:00:14.479Z,62.76
2019-05-23T06:02:41.101Z,62.78
2019-05-23T06:05:07.794Z,63.56
2019-05-23T06:07:39.336Z,63.74
2019-05-23T06:10:05.978Z,64.20
2019-05-23T06:12:32.567Z,63.92
2019-05-23T06:15:00.980Z,64.46
2019-05-23T06:17:27.608Z,64.83
2019-05-23T06:19:54.264Z,64.60
2019-05-23T06:22:21.113Z,64.45
2019-05-23T06:24:52.478Z,63.98
2019-05-23T06:27:16.219Z,63.49
2019-05-23T06:29:43.113Z,63.68
2019-05-23T06:32:09.830Z,64.14
2019-05-23T06:34:38.748Z,64.16
2019-05-23T06:37:07.292Z,64.59
2019-05-23T06:39:36.293Z,64.68
2019-05-23T06:42:07.241Z,64.50
2019-05-23T06:44:34.924Z,64.34
2019-05-23T06:47:04.708Z,64.30
2019-05-23T06:49:32.325Z,64.14
2019-05-23T06:51:59.901Z,64.37
2019-05-23T06:54:28.972Z,65.19
2019-05-23T06:56:56.934Z,64.74
2019-05-23T06:59:26.929Z,63.63
2019-05-23T07:01:54.963Z,63.28
2019-05-23T07:04:21.800Z,62.97
2019-05-23T07:09:26.924Z,61.70
2019-05-23T07:11:56.580Z,62.29
2019-05-23T07:19:39.189Z,60.07
2019-05-23T07:22:06.846Z,60.22
2019-05-23T07:30:00.166Z,59.76
2019-05-23T07:32:27.721Z,60.16
2019-05-23T07:34:55.345Z,60.52
2019-05-23T07:37:24.506Z,61.17
2019-05-23T07:39:52.164Z,60.91
2019-05-23T07:42:18.784Z,60.31
2019-05-23T07:44:49.006Z,58.96
2019-05-23T07:47:19.254Z,59.79
2019-05-23T07:49:49.139Z,59.60
2019-05-23T07:52:18.976Z,56.83
2019-05-23T07:54:46.657Z,58.25
2019-05-23T07:57:13.573Z,58.63
2019-05-23T07:59:43.406Z,56.28
2019-05-23T08:02:10.083Z,56.83
2019-05-23T08:07:14.713Z,57.07
2019-05-23T08:09:43.680Z,56.63
2019-05-23T08:12:11.448Z,55.24
2019-05-23T08:35:40.589Z,47.82
2019-05-23T08:38:09.188Z,48.55
2019-05-23T08:40:37.962Z,49.80
2019-05-23T08:43:04.851Z,49.55
2019-05-23T08:45:34.270Z,46.43
2019-05-23T08:48:06.076Z,47.11
2019-05-23T08:50:38.217Z,45.80
2019-05-23T08:53:04.000Z,46.49
2019-05-23T08:58:09.393Z,45.82
2019-05-23T09:00:36.106Z,46.58
2019-05-23T09:03:05.347Z,48.86
2019-05-23T09:05:32.501Z,48.24
2019-05-23T09:07:59.228Z,44.38
2019-05-23T09:10:29.737Z,44.61
2019-05-23T09:12:56.355Z,41.94
2019-05-23T09:15:22.940Z,43.42
2019-05-23T09:17:54.042Z,44.74
2019-05-23T09:20:21.102Z,46.65
2019-05-23T09:22:55.068Z,43.78
2019-05-23T09:25:32.818Z,44.19
2019-05-23T09:49:11.126Z,37.77
2019-05-23T09:51:37.175Z,39.38
2019-05-23T09:54:06.906Z,39.86
2019-05-23T09:56:33.448Z,36.47
2019-05-23T10:19:57.224Z,31.94
2019-05-23T10:22:23.730Z,32.77
2019-05-23T10:24:52.169Z,30.54
2019-05-23T10:27:18.779Z,34.05
2019-05-23T10:29:46.339Z,35.59
2019-05-23T10:32:16.474Z,35.10
2019-05-23T10:34:43.073Z,33.72
2019-05-23T10:37:10.519Z,33.78
2019-05-23T10:39:39.901Z,31.08
2019-05-23T10:42:06.620Z,31.04
2019-05-23T10:44:33.113Z,33.28
2019-05-23T10:47:01.994Z,33.97
2019-05-23T10:49:28.587Z,34.68
2019-05-23T10:51:55.152Z,31.35
2019-05-23T10:54:23.700Z,34.40
2019-05-23T10:56:50.242Z,34.12
2019-05-23T10:59:16.820Z,33.03
2019-05-23T11:01:45.808Z,33.68
2019-05-23T11:04:12.371Z,33.69
2019-05-23T11:06:38.911Z,32.81
2019-05-23T11:09:07.599Z,34.45
2019-05-23T11:11:34.129Z,32.66
2019-05-23T11:14:00.775Z,32.03
2019-05-23T11:16:29.899Z,34.47
2019-05-23T11:18:56.485Z,33.76
2019-05-23T11:21:23.047Z,32.20
2019-05-23T11:23:51.727Z,34.15
2019-05-23T11:26:18.258Z,33.45
2019-05-23T11:28:45.237Z,32.27
2019-05-23T11:31:14.698Z,32.24
2019-05-23T11:33:42.181Z,32.70
2019-05-23T11:36:09.133Z,32.01
2019-05-23T11:38:38.128Z,31.26
2019-05-23T11:41:05.067Z,31.13
2019-05-23T11:43:32.218Z,32.04
2019-05-23T11:46:02.510Z,31.61
2019-05-23T11:48:29.074Z,31.70
2019-05-23T11:50:55.622Z,31.34
2019-05-23T11:53:25.013Z,30.48
2019-05-23T11:55:54.467Z,31.43
2019-05-23T11:58:20.217Z,30.33
2019-05-23T12:00:48.882Z,30.10
2019-05-23T12:03:15.393Z,31.17
2019-05-23T12:05:41.973Z,29.80
2019-05-23T12:08:10.275Z,29.42
2019-05-23T12:10:36.856Z,31.36
2019-05-23T12:13:03.404Z,31.27
2019-05-23T20:22:55.654Z,48.06
2019-05-23T20:25:26.284Z,48.69
2019-05-23T20:27:58.055Z,48.60
2019-05-23T20:30:27.238Z,48.60
2019-05-23T20:35:45.283Z,48.86
2019-05-23T20:43:24.829Z,49.55
2019-05-23T20:45:50.913Z,49.10
2019-05-23T20:48:23.605Z,48.94
2019-05-23T20:50:53.414Z,48.35
2019-05-23T20:53:22.097Z,49.10
2019-05-23T20:55:48.911Z,49.20
2019-05-23T20:58:18.441Z,48.89
2019-05-23T21:00:46.238Z,48.81
2019-05-23T21:03:12.834Z,49.66
2019-05-23T21:05:46.282Z,49.45
2019-05-23T21:08:17.085Z,49.66
2019-05-23T21:10:45.269Z,49.82
2019-05-23T21:23:33.467Z,49.92
2019-05-23T21:26:01.076Z,51.10
2019-05-23T21:28:30.023Z,51.21
2019-05-23T21:36:08.525Z,50.90
2019-05-23T21:38:35.385Z,49.23
2019-05-23T21:41:03.311Z,50.35
2019-05-23T21:46:08.605Z,52.19
2019-05-23T21:48:41.488Z,52.08
2019-05-23T21:53:47.413Z,51.61
2019-05-23T21:56:14.034Z,52.21
2019-05-23T21:58:45.319Z,52.17
2019-05-23T22:01:14.923Z,53.10
2019-05-23T22:03:41.295Z,52.13
2019-05-23T22:08:45.052Z,52.04
2019-05-23T22:11:16.003Z,51.75
2019-05-23T22:16:19.627Z,52.55
2019-05-23T22:18:47.261Z,52.91
2019-05-23T22:21:19.558Z,53.87
2019-05-23T22:23:46.152Z,54.16
2019-05-23T22:26:17.367Z,54.37
2019-05-23T22:41:33.556Z,53.62
2019-05-23T22:44:07.212Z,54.60
2019-05-23T22:46:44.730Z,55.09
2019-05-23T22:51:56.933Z,54.39
2019-05-23T22:57:03.083Z,55.30
2019-05-23T22:59:32.987Z,55.71
2019-05-23T23:02:00.378Z,55.99
2019-05-23T23:17:18.278Z,56.12
2019-05-23T23:19:49.198Z,55.66
2019-05-23T23:22:21.072Z,55.91
2019-05-23T23:24:48.709Z,55.44
2019-05-23T23:27:18.294Z,55.56
2019-05-23T23:40:03.996Z,54.04
2019-05-23T23:42:31.302Z,55.10
2019-05-23T23:47:37.054Z,55.23
2019-05-23T23:50:04.692Z,55.08
2019-05-23T23:55:17.882Z,54.90
2019-05-23T23:57:45.560Z,55.23
